Meißner-Sparkassen-Cup
L13 - Ziegenhain

Ergebnisse vom 25. Ziegenhainer Auelauf am 19. September 2015

 

 3 km     Cupwertung   Wettkampf  
Platz Name,Vorname Jg Verein Platz AK Endzeit Platz AK
1 Rühle, Nico 0 SC Riesa 1 mU16 00:11:26 1 mSch15
2 Hoffmann, Lisa-Marie 2 SV Elbland Coswig Meißen 1 wU14 00:11:55 1 wSch13
3 Förster, Cedrik 1 SG Grüne Eiche Großthiemig 2 mU16 00:12:06 1 mSch14
4 Brandt, Luca 1 SV Chemie Nünchritz 3 mU16 00:12:12 2 mSch14
5 Winter, Philipp 2 LG TuS Weinböhla 1 mU14 00:12:24 1 mSch13
6 Eschler, Finn 4 SV Elbland Coswig Meißen 1 mU12 00:12:28 1 mSch11
7 Kneisel, Till 6 SV Elbland Coswig-Meißen 1 mU10 00:12:40 1 mSch 9
8 Eschler, Ole 7 SV Elbland Coswig Meißen 2 mU10 00:12:44 1 mSch 8
9 Walther, Franz 3 SC Riesa 2 mU14 00:12:47 1 mSch12
10 Witt, Florian 3 SV Chemie Nünchritz 3 mU14 00:13:05 2 mSch12
11 Walther, Michael 69 Nössige 1 M45 00:13:09 1 Männer
12 Wetzig, Julian 1 FFW Ziegenhain 4 mU16 00:13:12 3 mSch14
13 Schönbrunn, Sandra 0 SV Eintracht Ortrand 1 wU16 00:13:26 1 wSch15
14 Richter, Jette 4 SV Chemie Nünchritz 1 wU12 00:13:27 1 wSch11
15 Krüger, Holger 43 Meißen 1 M70 00:13:28 1 M70
16 Grübler, Jonathan 4 SC Riesa 2 mU12 00:13:29 2 mSch11
17 Schliwa, Alexander 0 Sachsenlauf-Team Tempus 5 mU16 00:13:36 2 mSch15
18 Hoffmann, Leah 4 SV Grün-Weiß Ebersbach 2 wU12 00:13:49 2 wSch11
19 Ribbeck, Julian Elias 2 TSV Cossebaude 4 mU14 00:13:53 2 mSch13
20 Hilse, Marius 3 ESV Lok Wülknitz 5 mU14 00:13:54 3 mSch12
21 Hempel, Calvin 3 SV Elbland Coswig Meißen 6 mU14 00:13:59 4 mSch12
22 Wege, Rita 52 TuS Coswig 1920 1 W60 00:14:13 1 W60
23 Prasse, Emily 2 SV Chemie Nünchritz 2 wU14 00:14:20 2 wSch13
24 Pietsch, Marie-Luise 3 SV Elbland Coswig Meißen 3 wU14 00:14:21 1 wSch12
25 Rudolph, Hannah 6 SV Elbland Coswig Meißen 1 wU10 00:14:22 1 wSch 9
26 Rudolph, Tim 8 SV Elbland Coswig Meißen 3 mU10 00:14:29 1 mSch 7
27 Bräuer, Jonathan 7 Ziegenhain 4 mU10 00:14:42 2 mSch 8
28 Hengst, Bernd 45 Laufgruppe Nossen 2 M70 00:14:57 2 M70
29 Rohm, Rosalie 2 SV Motor Großenhain 4 wU14 00:15:01 3 wSch13
30 Miserski, Fritz 6 Ziegenhain 5 mU10 00:15:09 2 mSch 9
31 Eulitz, Julian 6 Ziegenhain 6 mU10 00:15:10 3 mSch 9
32 Richter, Emma 8 SV Chemie Nünchritz 2 wU10 00:15:12 1 wSch 7
33 Hain, Linus 5 SV Elbland Coswig Meißen 3 mU12 00:15:18 1 mSch10
34 Nicolai, Bruno 6 Ziegenhain 7 mU10 00:15:19 4 mSch 9
35 Fricke, Ulrich 43 Weinböhla 3 M70 00:15:27 3 M70
36 Mißbach, Marita 60 Meißen 1 W55 00:15:31 1 W55
37 Schmidt, Isabell 4 Lauftreff OS Weinböhla 3 wU12 00:15:34 3 wSch11
38 Wagner, Hannah 6 Coswig 3 wU10 00:15:40 2 wSch 9
39 Zosel, Armin 34 TSV 1892 Radeburg 1 M80+ 00:15:43 1 M80+
40 Klengel, Tessa 1 Naunhof 2 wU16 00:15:46 1 wSch14
41 Bräuer, Lara-Lätizia 0 Ziegenhain 3 wU16 00:15:54 2 wSch15
42 Berner, Falk 0 FFW Ziegenhain 6 mU16 00:15:55 3 mSch15
43 Rodewald, Florian 2 FFW Ziegenhain 7 mU14 00:15:56 3 mSch13
44 Locke, Jens 72 Ziegenhain 1 M40 00:16:02 2 Männer
45 Lehmann, Anett 69 Dresden 1 W45 00:16:05 1 Frauen
46 Hesse, Petra 59 LSV Pirna 2 W55 00:16:06 2 W55
47 Hoffmann, Till 8 Ziegenhain 8 mU10 00:16:08 2 mSch 7
48 Hempel, Jules 8 SV Elbland Coswig Meißen 9 mU10 00:16:09 3 mSch 7
48 Hempel, Pascal 99 SV Elbland Coswig Meißen 1 mU20 00:16:09 1 mJgd
50 Riemer, Mike 0 Ziegenhain 7 mU16 00:16:11 4 mSch15
51 Oettmeier, Joachim 44 SG Canitz 4 M70 00:16:12 4 M70
52 Mai, Simone 60 SV Elbland Coswig Meißen 3 W55 00:16:25 3 W55
53 Hoppe, Leonie 6 SV Elbland Coswig Meißen 4 wU10 00:16:35 3 wSch 9
54 Mantey, Danuta 50 Grimma 1 W65+ 00:16:47 1 W65+
55 Dick, Timothy 7 Ziegenhain 10 mU10 00:16:54 3 mSch 8
56 Krause, Lennart 6 Ziegenhain 11 mU10 00:17:07 5 mSch 9
57 von Wenckstern, Christian 6 SV 29 Gleisberg 12 mU10 00:17:09 6 mSch 9
58 Löwe, Oskar 6 Ziegenhain 13 mU10 00:17:14 7 mSch 9
59 Schober, Emely 6 Ziegenhain 5 wU10 00:17:16 4 wSch 9
60 Geiger, Tom 7 Ziegenhain 14 mU10 00:17:19 4 mSch 8
61 Zesch, Tara 4 SV Elbland Coswig Meißen 4 wU12 00:17:21 4 wSch11
62 Hennig, Katharina 5 Bunte Pferde Welt Seilitz 5 wU12 00:17:26 1 wSch10
63 Heblack, Johanna 4 Ziegenhain 6 wU12 00:17:29 5 wSch11
63 Richter, Nico 80 Ziegenhain 1 M35 00:17:29 3 Männer
65 Doege, Angela 57 Ren(n)tiere Miltitz 4 W55 00:17:34 4 W55
66 Neumeister, Lennart 6 Ziegenhain 15 mU10 00:17:50 8 mSch 9
67 Kühn, Gerald 44 SC Riesa 5 M70 00:17:52 5 M70
68 Begander, Pia 6 Ziegenhain 6 wU10 00:17:53 5 wSch 9
69 Barthel, Nathanael 1 Freie Werkschule 8 mU16 00:17:54 4 mSch14
70 Hähnel, Marvin 2 SV Chemie Nünchritz 8 mU14 00:18:02 4 mSch13
71 Neumeister, Kalle 8 Ziegenhain 16 mU10 00:18:17 4 mSch 7
72 Band, Konrad 5 Ziegenhain 4 mU12 00:18:19 2 mSch10
73 Bräuer, Matthias 81 Ziegenhain 1 M30 00:18:27 4 Männer
74 Schewe, Gudrun 58 Dresden 5 W55 00:18:36 5 W55
75 Malsch, Bernhard 37 Meißen 1 M75 00:18:45 1 M75
76 Müller, Elisabeth 1 Ziegenhain 4 wU16 00:18:53 2 wSch14
77 Mai, Julia 2 SV Elbland Coswig Meißen 5 wU14 00:18:55 4 wSch13
78 Dick, Josephine 5 Seiwakai 7 wU12 00:18:59 2 wSch10
79 Geiger, Lisa 8 Ziegenhain 7 wU10 00:19:03 2 wSch 7
80 Geiger, Ulrich 69 Ziegenhain 2 M45 00:19:04 5 Männer
81 Baier, Regine 48 ESV Lok Dessau 2 W65+ 00:19:09 2 W65+
82 Lösche, Brunhilde 52 Elsterwerda 2 W60 00:19:19 2 W60
83 Borgwardt, Ben 3 Lommatzscher SV 9 mU14 00:19:23 5 mSch12
84 Fricke, Maximilian 5 IWF Ziegenhain 5 mU12 00:19:26 3 mSch10
85 Fuchs, Alexandra 5 Ziegenhain 8 wU12 00:19:29 3 wSch10
86 Band, Florentine 8 Ziegenhain 8 wU10 00:19:42 3 wSch 7
87 Haubold, Friederike 81 Ziegenhain 1 W30 00:19:44 2 Frauen
88 Krüger, Nelly 4 Ziegenhain 9 wU12 00:19:47 6 wSch11
88 Seifert, Annalena 4 Ziegenhain 9 wU12 00:19:47 6 wSch11
90 Harz, Birgit 44 Citylauf-Verein Dresden 3 W65+ 00:20:14 3 W65+
91 Zesch, Nell 8 SV Elbland Coswig Meißen 9 wU10 00:20:19 4 wSch 7
92 Barthel, Korbinian 6 Ziegenhain 17 mU10 00:20:29 9 mSch 9
93 Borgwardt, Jens 85 Ziegenhain 2 M30 00:20:30 6 Männer
94 Weigner, Jannik 6 Ziegenhain 18 mU10 00:20:31 10 mSch 9
95 Müller, Lena 8 Ziegenhain 10 wU10 00:20:40 5 wSch 7
96 Mai, Lea 1 SV Elbland Coswig Meißen 5 wU16 00:20:52 3 wSch14
97 Zettl, Karl 7 Ziegenhain 19 mU10 00:20:58 5 mSch 8
98 Schmiedel, Alexa 6 Ziegenhain 11 wU10 00:21:01 6 wSch 9
99 Herfurth, Gerlinde 58 Ziegenhain 6 W55 00:21:02 6 W55
100 Landes, Alma 6 Ziegenhain 12 wU10 00:21:03 7 wSch 9
100 Lucke, Sven 82 Ziegenhain 3 M30 00:21:03 7 Männer
102 Stiller, Lena 7 Ziegenhain 13 wU10 00:21:05 1 wSch 8
103 Ulbrich, Birgit 62 Ziegenhain 1 W50 00:21:08 3 Frauen
104 Richter, Julian 5 Ziegenhain 6 mU12 00:21:51 4 mSch10
105 Gill, Elke 52 SC Riesa 3 W60 00:21:53 3 W60
106 Bokeloh, Johanna 3 Ziegenhain 6 wU14 00:22:00 2 wSch12
107 von Wenckstern, Anna 3 Ziegenhain 7 wU14 00:22:01 3 wSch12
108 Adam, Matilde 6 Wolkau 14 wU10 00:22:51 8 wSch 9
109 Hahn, Günter 35 SC Riesa 2 M80+ 00:26:25 2 M80+
6 km              
Platz Name,Vorname Jhg. Verein Platz AK Endzeit Platz AK
1 Kaubisch, Nico 97 TEA Hirschfeld 1 mU20 00:23:36 1 mJug
2 Förster, Lukas 99 SG Grüne Eiche Großthiemig 2 mU20 00:23:50 2 mJug
3 Häußler, Norman 97 RSV Großenhain 3 mU20 00:23:56 3 mJug
4 Stich, Nicolas 99 SV Elbland Coswig Meißen 4 mU20 00:24:07 4 mJug
5 Stich, Grit 70 Radebeul 1 W45 00:25:05 1 W45
6 Jancker, Hans-Dieter 52 SV Elbland Coswig Meißen 1 M60 00:25:51 1 M60
7 Berger, Victor 53 TuS Coswig 2 M60 00:26:30 2 M60
8 Winter, Jürgen 48 LG TuS Weinböhla 1 M65 00:27:01 1 M65
9 Hammer, Dorothea 80 SC Riesa 1 W35 00:27:13 1 W35
10 Kretzschmar, Felix 96 Holzhandel Ganzig 5 mU20 00:27:26 5 mJug
11 Heyer, Ulrich 53 Chemnitz 3 M60 00:27:36 3 M60
11 Dewitz, Silke 67 ESV Lok Döbeln 2 W45 00:27:36 2 W45
13 Wegner-Drichelt, Conni 74 Meißen 1 W40 00:28:53 1 W40
14 Hoffmann, Steffen 80 Ziegenhain 1 M35 00:28:54 1 Männer
15 Kaubisch, Daniel 90 Hirschfelder Läufer TEA 1 MHK 00:29:07 2 Männer
16 Hesse, Andreas 56 LSV Pirna 1 M55 00:29:10 3 Männer
17 Heyer, Ina 80 Chemnitz 2 W35 00:29:18 2 W35
18 Primus, Heike 62 SC Riesa 1 W50 00:29:38 1 W50+
19 Kümmel, Petra 65 LG Priestewitz 2 W50 00:29:45 2 W50+
20 Schubert, Hartmut 50 Dresden 2 M65 00:30:09 2 M65
21 Heinicke, Wallfried 49 Oschatz/Thalheim 3 M65 00:30:13 3 M65
22 Schönbrunn, Romy 97 SV Eintracht Ortrand 1 wU20 00:30:17 1 wJug
23 Bormann, Sophie 84 LWV 05 Bad Liebenwerda 1 W30 00:30:24 1 W30
24 Förster, Julian 71 Radebeul 1 M40 00:30:28 4 Männer
25 Blaas, Aline 97 SV Chemie Nünchritz 2 wU20 00:30:37 2 wJug
26 Hoffmann, Hagen 68 Naunhof 1 M45 00:30:39 5 Männer
27 Conrad, Rainer 48 Oschatz/Thalheim 4 M65 00:31:03 4 M65
28 Moritz, Adam 4 Ziegenhain 1 mU12 00:31:09 6 mJug
29 Schubert, Lothar 53 WSV Riesa 4 M60 00:31:27 4 M60
30 Mai, Roberto 64 SV Elbland Coswig Meißen 1 M50 00:31:42 6 Männer
31 Hoßbach, Harald 46 LSG Wermsdorf 5 M65 00:31:54 5 M65
32 Hammer, Ines 70 Strehla 3 W45 00:32:09 3 W45
33 Köber, Anett 76 Ockrilla 3 W35 00:32:10 3 W35
34 Needell, Dirk 71 Coswig 2 M40 00:32:25 7 Männer
35 Berge, Anett 64 Riesa 3 W50 00:32:32 3 W50+
36 Richter, Manuela 74 LG Priestewitz 2 W40 00:32:38 2 W40
37 Kühnast, Jana 73 Starbach 3 W40 00:33:03 3 W40
38 Häußler, Ines 68 Großenhain 4 W45 00:33:21 4 W45
39 Hilse, Yvette 67 Peritz 5 W45 00:33:24 5 W45
40 Senf, Dietmar 51 Großbothen 5 M60 00:33:27 5 M60
41 Nestler, Peter 49 SV Großenhain 6 M65 00:33:45 6 M65
42 Kothe, Melanie 78 SV Scharfenberg 4 W35 00:33:57 4 W35
43 List, Hans-Joachim 49 Ruhland 7 M65 00:33:59 7 M65
44 Meier, Friedhard 53 Niederau 6 M60 00:34:03 6 M60
45 Rühle, Ivonne 71 Lichtensee 4 W40 00:34:16 4 W40
46 Röder, Birgit 68 SC Riesa 6 W45 00:34:30 6 W45
47 Mauke, Holger 58 Schmiedewalde 2 M55 00:35:12 8 Männer
48 Mai, Lisa 90 SV Elbland Coswig Meißen 1 WHK 00:35:22 1 W20
49 Klengel, Frank 67 Naunhof 2 M45 00:35:43 9 Männer
50 Merkel, Bernd 46 RSL-Verein 8 M65 00:36:18 8 M65
51 Handrick, Simone 81 Meißen 2 W30 00:36:32 2 W30
52 Richter, Sabine 82 SV Chemie Nünchritz 3 W30 00:36:41 3 W30
53 Kneschke, Uta 62 SC Riesa 4 W50 00:36:58 4 W50+
54 Häußler, Maren 98 Großenhainer RV 3 wU20 00:38:20 3 wJug
55 Band, Luise 3 Ziegenhain 1 wU14 00:38:43 4 wJug
56 Band, Dirk 68 Ziegenhain 3 M45 00:38:54 10 Männer
57 Heinrich, Dietmar 47 SV Elbland Coswig Meißen 9 M65 00:39:56 9 M65
58 Beger, Angela 79 Coswig 5 W35 00:44:48 5 W35
59 Seitz, Bernd 39 KC Regensburg 1 M75 00:57:57 1 M75
                 
 12 km              
Platz Name,Vorname Jhg. Verein Platz AK Endzeit Platz AK
1 Eschler, Rene 75 SV Elbland Coswig Meißen 1 M40 00:45:26 1 M40
2 Schwarzer, Roland 85 Katzengebirgsläufer 1 M30 00:45:52 1 M30
3 Thieme, Holger 72 SC Riesa 2 M40 00:45:56 2 M40
4 Göhler, Niels 76 SV Elbland Coswig Meißen 1 M35 00:46:40 1 M35
5 Sittner, Falk 81 Lauffördergruppe Gruna 2 M30 00:47:28 2 M30
6 Wolf, Daniel 74 LG Priestewitz 3 M40 00:48:25 3 M40
7 Wolf, Stefan 86 LG Priestewitz 1 MHK 00:49:48 1 M20
8 Kretzschmar, Achim 67 Holzhandel Ganzig 1 M45 00:49:51 1 M45
9 Schwan, Ralph 65 ATSV Kirchseeon 1 M50 00:50:02 1 M50
10 Noack gen. Gräfe, Stefan 79 LG TuS Weinböhla 2 M35 00:50:23 2 M35
11 Knöfel, Detlef 63 Meißen 2 M50 00:51:27 2 M50
12 Fleischer, Torsten 67 Coswig 2 M45 00:51:43 2 M45
13 Junghanns, Mario 65 Döbelner SV Vorwärts 3 M50 00:52:44 3 M50
14 Otto, Andreas 76 SV Elbland Coswig Meißen 3 M35 00:52:54 3 M35
15 Balzer, Frank 58 SV Einheit Grimma 1 M55 00:53:28 1 M55
16 Götzelt, Jan 71 SV Hellerau 4 M40 00:53:31 4 M40
17 Giebler, Andre 60 LG TuS Weinböhla 2 M55 00:53:48 2 M55
18 Umlauf, Steffen 61 SV Hellerau 4 M50 00:53:56 4 M50
19 Becker, Heiko 68 Strehla 3 M45 00:54:13 3 M45
20 Garbsch, Maik 90 Moritzburg 2 MHK 00:54:45 2 M20
21 Schliwa, Sebastian 83 SV Elbland Coswig Meißen 3 M30 00:54:50 3 M30
22 Trapp, Jörg 78 Wacker Laufgruppe 4 M35 00:55:14 4 M35
23 Büdi, Karel 70 LRG Adonis Riesa 4 M45 00:55:30 4 M45
24 Kleider, Bernd 57 TSV Dresden 3 M55 00:55:38 3 M55
25 Schwitalla, Dietmar 56 SC Riesa 4 M55 00:56:37 4 M55
26 Ruhland, Jörg 68 Team Sport Ruscher 5 M45 00:57:04 5 M45
27 Zielke, Frank 69 Wacker LG Nünchritz 6 M45 00:57:10 6 M45
27 Hammer, Grit 85 Meißen 1 W30 00:57:10 1 Frauen
29 Bänsch, Rene 80 Lommatzsch 5 M35 00:57:39 5 M35
30 Feder, Hartmut 60 SC Riesa 5 M55 00:59:22 5 M55
31 Möbius, Tino 64 Diesbar Seußlitz 5 M50 00:59:34 5 M50
32 Rühle, Frank 71 Lichtensee 5 M40 01:00:04 5 M40
33 Richter, Rene 65 Dresden 6 M50 01:00:17 6 M50
34 Körbs, Dirk 65 Laufgruppe Nossen 7 M50 01:01:10 7 M50
35 Jakat, Gerd 63 Eestly Husky Race 8 M50 01:02:27 8 M50
36 Vogel, Dieter 65 Laufgruppe Nossen 9 M50 01:02:53 9 M50
37 Müller, Uwe 70 Leisnig 7 M45 01:03:43 7 M45
38 Zieger, Wolfram 62 Ziegenhain 10 M50 01:04:11 10 M50
39 Urban, Gerd 65 running boys Coswig 11 M50 01:04:46 11 M50
40 Tille, Peter 58 Großenhain 6 M55 01:06:35 6 M55
41 Wick, Peter 59 Weinböhla 7 M55 01:06:53 7 M55
42 Raschke, Alexander 87 Großenhain 3 MHK 01:07:35 3 M20
43 Slany, Bernd 57 LandMAXX Radeburg 8 M55 01:08:47 8 M55
44 Adam, Heiko 71 Wolkau 6 M40 01:09:35 6 M40

 

Nach oben